Time;durP1;ratioP1;P1;durP2;ratioP2;P2;SDS_P1;SDS_P2;PMS_P1;PMS_P2;Temp;Humidity;BMP_temperature;BMP_pressure;BME280_temperature;BME280_humidity;BME280_pressure;Samples;Min_cycle;Max_cycle;Signal;HPM_P1;HPM_P2
2022/02/12 00:01:04;;;;;;;15.23;5.97;;;1.40;90.20;;;1.86;63.43;99224.41;4968535;28;20085;-36
2022/02/12 00:03:33;;;;;;;9.67;5.07;;;1.30;90.60;;;1.86;63.38;99219.16;4969316;28;20050;-36
2022/02/12 00:06:01;;;;;;;11.00;6.03;;;1.40;90.40;;;1.88;63.73;99200.69;4968949;28;20055;-36
2022/02/12 00:08:29;;;;;;;9.73;5.83;;;1.40;91.10;;;1.89;63.68;99198.00;4967946;28;20341;-36
2022/02/12 00:10:58;;;;;;;11.30;5.27;;;1.40;90.80;;;1.89;63.37;99199.78;4967478;28;20053;-36
2022/02/12 00:13:26;;;;;;;10.17;5.20;;;1.30;89.60;;;1.83;63.33;99203.53;4967801;28;20051;-36
2022/02/12 00:15:54;;;;;;;8.13;5.23;;;1.30;89.80;;;1.80;63.68;99193.13;4968839;28;20058;-36
2022/02/12 00:18:22;;;;;;;9.87;5.17;;;1.20;89.80;;;1.77;63.48;99195.91;4968267;28;20059;-36
2022/02/12 00:20:50;;;;;;;11.43;5.37;;;1.20;89.60;;;1.75;63.69;99197.75;4966984;28;20062;-36
2022/02/12 00:23:18;;;;;;;12.73;6.50;;;1.20;90.30;;;1.73;63.27;99192.56;4968157;28;20051;-36
2022/02/12 00:25:46;;;;;;;9.37;6.27;;;1.20;89.90;;;1.72;63.67;99192.63;4968631;28;20046;-36
2022/02/12 00:28:14;;;;;;;13.43;6.93;;;1.20;89.40;;;1.72;63.60;99192.63;4968815;28;20046;-36
2022/02/12 00:30:43;;;;;;;12.57;6.37;;;1.20;89.50;;;1.70;63.65;99194.47;4968013;28;20272;-36
2022/02/12 00:33:11;;;;;;;12.00;6.63;;;1.20;89.40;;;1.67;63.65;99186.75;4968100;28;20076;-36
2022/02/12 00:35:39;;;;;;;12.73;6.00;;;1.20;89.70;;;1.68;63.85;99183.19;4967076;28;20062;-36
2022/02/12 00:38:07;;;;;;;9.53;5.93;;;1.10;90.20;;;1.66;63.79;99187.66;4968563;28;20054;-36
2022/02/12 00:40:35;;;;;;;11.67;6.40;;;1.10;90.30;;;1.62;63.97;99186.94;4950717;28;20066;-36
2022/02/12 00:43:04;;;;;;;13.33;6.00;;;1.10;90.70;;;1.58;63.37;99191.47;4968861;28;20051;-36
2022/02/12 00:45:32;;;;;;;14.17;7.30;;;1.00;91.00;;;1.56;64.01;99188.06;4967660;28;20055;-36
2022/02/12 00:48:00;;;;;;;13.43;6.83;;;1.00;91.30;;;1.57;63.98;99188.91;4966655;28;20063;-36
2022/02/12 00:50:28;;;;;;;10.77;7.77;;;1.00;90.80;;;1.52;63.71;99191.75;4967621;28;20063;-36
2022/02/12 00:52:57;;;;;;;8.80;5.30;;;0.90;91.40;;;1.48;63.81;99189.31;4967666;28;20171;-36
2022/02/12 00:55:25;;;;;;;12.20;6.13;;;0.80;92.20;;;1.45;64.21;99189.44;4967524;28;20058;-36
2022/02/12 00:57:53;;;;;;;10.30;5.77;;;0.80;93.60;;;1.39;63.79;99187.94;4968386;28;20126;-36
2022/02/12 01:00:21;;;;;;;12.97;7.73;;;0.70;94.80;;;1.36;64.52;99188.94;4967613;28;20065;-36
2022/02/12 01:02:51;;;;;;;10.43;6.57;;;0.80;97.10;;;1.34;64.22;99185.53;4966742;28;20050;-36
2022/02/12 01:05:19;;;;;;;14.50;6.97;;;0.70;97.40;;;1.37;64.60;99189.78;4967856;28;20046;-36
2022/02/12 01:07:47;;;;;;;12.27;6.77;;;0.80;98.20;;;1.40;64.24;99183.53;4967944;28;20046;-36
2022/02/12 01:10:15;;;;;;;8.60;5.70;;;0.80;98.00;;;1.42;64.92;99181.72;4966554;28;20061;-36
2022/02/12 01:12:44;;;;;;;13.57;6.70;;;0.90;98.10;;;1.46;64.38;99185.91;4967256;28;20054;-36
2022/02/12 01:15:14;;;;;;;11.57;5.80;;;1.00;97.80;;;1.48;64.72;99173.56;4967927;28;20236;-36
2022/02/12 01:17:42;;;;;;;11.63;5.97;;;1.00;97.10;;;1.49;64.66;99177.88;4966551;28;20051;-36
2022/02/12 01:20:11;;;;;;;11.57;5.73;;;1.00;97.20;;;1.50;64.38;99174.34;4967460;28;20368;-36
2022/02/12 01:22:40;;;;;;;10.93;5.90;;;1.00;96.90;;;1.50;64.11;99169.94;4968109;28;20253;-36
2022/02/12 01:25:09;;;;;;;9.73;6.13;;;1.00;96.50;;;1.51;64.39;99168.19;4967595;28;20043;-36
2022/02/12 01:27:37;;;;;;;12.63;7.33;;;1.00;96.20;;;1.51;64.19;99162.91;4967138;28;20054;-35
2022/02/12 01:30:06;;;;;;;12.27;7.63;;;1.00;95.70;;;1.52;63.94;99168.13;4968260;28;20057;-35
2022/02/12 01:32:35;;;;;;;20.60;8.83;;;1.10;95.10;;;1.53;64.57;99166.34;4971375;28;20069;-36
2022/02/12 01:35:04;;;;;;;16.77;7.20;;;1.00;95.60;;;1.54;64.53;99161.03;4970712;28;20055;-36
2022/02/12 01:37:32;;;;;;;19.00;10.30;;;1.10;96.20;;;1.55;65.00;99165.38;4971292;28;20268;-36
2022/02/12 01:40:00;;;;;;;16.97;9.20;;;1.10;96.50;;;1.58;64.38;99164.38;4968832;28;20054;-36
2022/02/12 01:42:29;;;;;;;15.23;8.67;;;1.10;96.30;;;1.60;65.07;99162.53;4970976;28;20057;-35
2022/02/12 01:45:00;;;;;;;16.40;7.93;;;1.20;96.80;;;1.59;65.09;99160.84;4971689;28;20061;-36
2022/02/12 01:47:29;;;;;;;16.87;6.70;;;1.10;97.00;;;1.58;64.88;99159.97;4969579;28;20051;-36
2022/02/12 01:49:57;;;;;;;12.17;6.10;;;1.10;96.30;;;1.55;64.58;99152.25;4971712;28;20057;-36
2022/02/12 01:52:32;;;;;;;11.60;6.67;;;1.00;96.80;;;1.51;64.60;99145.44;4970177;28;20051;-36
2022/02/12 01:55:02;;;;;;;13.27;6.70;;;0.90;97.40;;;1.48;64.92;99149.94;4970854;28;20067;-36
2022/02/12 01:57:31;;;;;;;15.70;8.73;;;0.90;98.40;;;1.47;64.92;99153.47;4971285;28;20262;-36
2022/02/12 01:59:59;;;;;;;11.17;6.30;;;0.90;98.90;;;1.47;64.72;99148.22;4972318;28;20061;-36
2022/02/12 02:02:27;;;;;;;22.57;11.07;;;0.90;99.10;;;1.46;64.75;99146.53;4971182;28;20051;-36
2022/02/12 02:04:55;;;;;;;15.77;8.67;;;0.90;99.00;;;1.47;65.22;99143.81;4951725;29;20049;-36
2022/02/12 02:07:24;;;;;;;14.77;7.77;;;0.90;99.10;;;1.47;64.63;99141.19;4952432;29;20349;-36
2022/02/12 02:09:52;;;;;;;11.47;6.50;;;0.90;98.90;;;1.48;64.87;99140.28;4951395;28;20063;-36
2022/02/12 02:12:20;;;;;;;13.13;5.73;;;1.00;99.10;;;1.49;64.63;99139.41;4949626;29;20321;-36
2022/02/12 02:14:48;;;;;;;13.50;6.80;;;1.00;98.60;;;1.51;64.86;99141.94;4951846;29;20065;-36
2022/02/12 02:17:17;;;;;;;11.10;5.60;;;1.00;97.70;;;1.49;64.79;99136.78;4950777;29;20059;-36
2022/02/12 02:19:45;;;;;;;12.53;6.33;;;1.00;96.40;;;1.48;64.88;99147.31;4951519;29;20065;-36
2022/02/12 02:22:16;;;;;;;8.93;5.50;;;1.00;96.30;;;1.47;64.96;99145.59;4950463;29;20063;-36
2022/02/12 02:24:44;;;;;;;9.87;5.70;;;1.00;96.00;;;1.44;64.90;99136.09;4951830;29;20638;-36
2022/02/12 02:27:15;;;;;;;10.40;6.33;;;0.90;95.80;;;1.43;64.87;99134.38;4951653;28;20057;-36
2022/02/12 02:29:45;;;;;;;10.63;5.70;;;1.00;95.40;;;1.45;64.17;99131.69;4950630;29;20050;-36
2022/02/12 02:32:14;;;;;;;9.57;5.80;;;1.00;94.80;;;1.43;64.37;99137.00;4949677;29;20055;-36
2022/02/12 02:34:54;;;;;;;14.03;6.97;;;1.00;94.30;;;1.41;64.83;99138.84;4951206;28;20051;-36
2022/02/12 02:37:24;;;;;;;12.63;6.50;;;0.90;95.20;;;1.39;64.34;99119.69;4950192;28;20063;-36
2022/02/12 02:39:52;;;;;;;16.60;6.50;;;0.90;95.30;;;1.35;64.69;99121.59;4950773;29;20061;-36
2022/02/12 02:42:20;;;;;;;11.47;6.73;;;0.80;95.30;;;1.34;64.24;99122.53;4949763;28;20055;-36
2022/02/12 02:44:48;;;;;;;10.63;5.73;;;0.80;95.70;;;1.31;64.78;99125.28;4951188;29;20464;-36
2022/02/12 02:47:33;;;;;;;13.33;6.67;;;0.80;95.70;;;1.32;64.12;99113.88;4950913;28;20051;-36
2022/02/12 02:50:02;;;;;;;12.55;7.55;;;0.80;96.00;;;1.30;64.94;99104.34;4949619;29;20051;-36
2022/02/12 02:58:04;;;;;;;14.83;7.40;;;0.70;95.70;;;1.18;64.25;99103.13;4950968;29;20069;-36
2022/02/12 03:00:33;;;;;;;10.03;6.53;;;0.70;95.00;;;1.17;64.26;99102.28;4950842;29;20061;-36
2022/02/12 03:03:01;;;;;;;14.87;7.30;;;0.60;94.90;;;1.14;64.03;99107.66;4950765;28;20063;-36
2022/02/12 03:05:29;;;;;;;10.70;7.53;;;0.60;94.20;;;1.08;64.82;99097.41;4949321;29;20226;-36
2022/02/12 03:07:58;;;;;;;11.53;7.10;;;0.50;94.50;;;1.05;64.65;99099.31;4950188;29;20047;-36
2022/02/12 03:10:27;;;;;;;10.53;7.77;;;0.50;94.70;;;1.03;64.13;99104.66;4949806;29;20065;-36
2022/02/12 03:12:55;;;;;;;12.43;7.37;;;0.50;94.90;;;1.04;64.41;99103.72;4951055;29;20059;-36
2022/02/12 03:15:23;;;;;;;11.73;6.87;;;0.50;94.40;;;1.02;64.66;99092.44;4950092;28;20069;-36
2022/02/12 03:17:51;;;;;;;16.37;7.50;;;0.50;93.70;;;0.97;64.14;99092.66;4949669;29;20054;-36
2022/02/12 03:20:19;;;;;;;11.53;7.20;;;0.40;93.10;;;0.95;64.65;99091.00;4949417;28;20063;-36
2022/02/12 03:22:47;;;;;;;14.63;8.00;;;0.40;93.10;;;0.93;64.21;99083.22;4950631;29;20066;-36
2022/02/12 03:25:15;;;;;;;11.90;8.33;;;0.40;93.40;;;0.92;64.58;99093.75;4950530;29;20058;-36
2022/02/12 03:27:43;;;;;;;15.70;8.10;;;0.40;93.20;;;0.93;64.23;99085.84;4949408;29;20245;-36
2022/02/12 03:30:12;;;;;;;13.47;7.10;;;0.50;93.20;;;0.93;64.15;99087.59;4948683;29;20077;-36
2022/02/12 03:32:40;;;;;;;14.47;8.20;;;0.40;92.70;;;0.92;64.26;99086.75;4949981;29;20344;-36
2022/02/12 03:35:08;;;;;;;12.40;7.57;;;0.40;92.50;;;0.92;64.30;99080.66;4949541;29;20234;-36
2022/02/12 03:37:36;;;;;;;12.90;8.07;;;0.40;91.60;;;0.89;63.99;99075.53;4950495;29;20055;-36
2022/02/12 03:40:05;;;;;;;13.37;8.07;;;0.40;91.60;;;0.85;64.11;99073.97;4949737;29;20055;-36
2022/02/12 03:42:34;;;;;;;14.83;8.90;;;0.40;92.40;;;0.85;64.26;99079.19;4949702;28;20073;-36
2022/02/12 03:45:03;;;;;;;12.33;8.50;;;0.40;92.40;;;0.84;64.03;99080.13;4950226;29;20055;-36
2022/02/12 03:47:31;;;;;;;13.97;8.73;;;0.40;92.30;;;0.82;64.04;99076.72;4949792;29;20257;-36
2022/02/12 03:49:59;;;;;;;13.67;8.50;;;0.30;91.80;;;0.81;63.97;99073.22;4949890;28;20061;-37
2022/02/12 03:52:27;;;;;;;16.63;8.93;;;0.30;92.10;;;0.81;64.58;99072.38;4949718;28;20047;-36
2022/02/12 03:54:56;;;;;;;12.50;7.93;;;0.30;91.10;;;0.78;64.77;99062.88;4949641;28;20218;-36
2022/02/12 03:57:24;;;;;;;14.17;8.57;;;0.30;91.30;;;0.81;63.87;99062.75;4949665;29;20317;-36
2022/02/12 03:59:52;;;;;;;11.43;7.37;;;0.30;91.10;;;0.81;64.44;99062.75;4948471;29;20391;-36
2022/02/12 04:02:20;;;;;;;12.40;7.43;;;0.30;90.60;;;0.79;63.85;99056.72;4949348;29;20054;-36
2022/02/12 04:04:49;;;;;;;14.90;7.70;;;0.30;90.20;;;0.78;63.75;99047.16;4948873;29;20379;-35
2022/02/12 04:07:17;;;;;;;12.83;6.77;;;0.30;90.70;;;0.77;64.43;99056.78;4949745;29;20271;-36
2022/02/12 04:09:45;;;;;;;13.23;7.87;;;0.40;90.20;;;0.76;64.47;99044.59;4949158;29;20055;-36
2022/02/12 04:12:13;;;;;;;10.83;6.63;;;0.30;90.80;;;0.76;64.58;99046.38;4948783;28;20059;-36
2022/02/12 04:14:41;;;;;;;16.73;10.87;;;0.30;91.10;;;0.73;64.73;99044.72;4948967;29;20053;-36
2022/02/12 04:17:09;;;;;;;32.43;14.30;;;0.20;91.90;;;0.74;63.92;99042.97;4948965;28;20055;-36
2022/02/12 04:19:38;;;;;;;22.47;12.80;;;0.30;91.80;;;0.74;64.68;99045.59;4948479;28;20059;-36
2022/02/12 04:22:06;;;;;;;15.50;9.27;;;0.30;91.80;;;0.72;63.95;99040.41;4949501;29;20609;-36
2022/02/12 04:24:34;;;;;;;13.53;6.70;;;0.30;91.10;;;0.71;64.46;99041.31;4948943;29;20055;-36
2022/02/12 04:27:03;;;;;;;18.47;7.83;;;0.20;90.90;;;0.69;63.82;99037.91;4948927;28;20054;-36
2022/02/12 04:29:31;;;;;;;10.60;7.57;;;0.30;90.80;;;0.64;64.49;99026.78;4948535;29;20055;-36
2022/02/12 04:32:00;;;;;;;10.60;6.90;;;0.10;90.90;;;0.61;64.68;99026.06;4948414;28;20051;-36
2022/02/12 04:34:28;;;;;;;11.80;6.13;;;0.10;91.50;;;0.58;64.64;99020.03;4949331;28;20063;-36
2022/02/12 04:36:56;;;;;;;12.40;6.50;;;0.10;91.70;;;0.57;63.85;99023.56;4949586;29;20055;-36
2022/02/12 04:39:24;;;;;;;11.97;6.77;;;0.10;91.90;;;0.55;64.23;99020.16;4948181;28;20063;-36
2022/02/12 04:41:53;;;;;;;16.07;7.47;;;0.10;92.20;;;0.57;64.74;99020.94;4948364;29;20069;-36
2022/02/12 04:44:21;;;;;;;14.87;8.40;;;0.10;92.20;;;0.57;64.82;99007.81;4949800;28;20120;-36
2022/02/12 04:46:49;;;;;;;12.07;9.53;;;0.10;92.10;;;0.56;64.75;99021.88;4949212;29;20035;-36
2022/02/12 04:49:22;;;;;;;14.13;8.03;;;0.10;91.60;;;0.55;64.01;99021.91;4948955;29;20051;-36
2022/02/12 04:51:50;;;;;;;12.87;7.30;;;0.10;91.50;;;0.51;64.75;99018.56;4950000;28;20051;-36
2022/02/12 04:54:18;;;;;;;10.83;8.00;;;0.00;91.90;;;0.50;64.01;99014.22;4948032;29;20070;-36
2022/02/12 04:56:46;;;;;;;12.87;9.63;;;0.00;92.20;;;0.48;64.79;99008.22;4948738;29;20051;-36
2022/02/12 04:59:14;;;;;;;11.70;7.80;;;0.00;91.30;;;0.47;64.67;98997.81;4948776;28;20067;-36
2022/02/12 05:01:42;;;;;;;13.13;7.37;;;0.00;91.50;;;0.44;64.09;98990.91;4948260;29;20053;-36
2022/02/12 05:04:10;;;;;;;13.03;7.00;;;0.00;91.50;;;0.42;64.19;98991.91;4949159;28;20207;-36
2022/02/12 05:06:38;;;;;;;11.57;6.23;;;-0.10;91.60;;;0.41;64.04;98984.94;4953586;29;20241;-36
2022/02/12 05:09:06;;;;;;;12.33;6.40;;;-0.10;91.80;;;0.43;65.07;98991.84;4955027;28;20054;-36
2022/02/12 05:11:39;;;;;;;13.43;6.43;;;-0.10;91.70;;;0.43;64.05;98991.84;4954290;29;20241;-36
2022/02/12 05:14:09;;;;;;;12.07;6.33;;;0.00;91.30;;;0.41;63.94;98996.31;4954257;29;20349;-36
2022/02/12 05:16:38;;;;;;;16.47;6.17;;;-0.10;91.70;;;0.35;64.63;98989.56;4955250;28;20051;-36
2022/02/12 05:19:06;;;;;;;13.13;7.47;;;-0.10;91.70;;;0.30;64.08;98991.50;4954664;29;20074;-36
2022/02/12 05:21:35;;;;;;;12.17;6.60;;;-0.20;91.90;;;0.31;64.01;98985.34;4955779;29;20051;-36
2022/02/12 05:24:03;;;;;;;15.73;7.83;;;-0.20;92.10;;;0.30;64.30;98983.63;4955381;28;20055;-35
2022/02/12 05:26:32;;;;;;;16.33;8.23;;;-0.20;91.80;;;0.29;64.25;98987.19;4952890;29;20043;-36
2022/02/12 05:29:00;;;;;;;17.60;7.47;;;-0.20;91.80;;;0.27;64.95;98986.41;4955371;28;20061;-36
2022/02/12 05:31:28;;;;;;;15.27;7.67;;;-0.10;91.50;;;0.28;64.86;98985.47;4967872;28;20399;-36
2022/02/12 05:33:57;;;;;;;18.97;8.03;;;-0.10;91.50;;;0.27;64.91;98990.78;4954883;28;20055;-36
2022/02/12 05:36:25;;;;;;;18.87;8.27;;;-0.10;91.60;;;0.26;65.12;98984.69;4955067;29;20070;-36
2022/02/12 05:38:53;;;;;;;16.60;8.07;;;-0.10;91.90;;;0.29;65.26;98981.06;4953136;28;20061;-36
2022/02/12 05:41:22;;;;;;;17.87;8.07;;;-0.10;92.30;;;0.32;65.05;98973.94;4954889;28;20353;-36
2022/02/12 05:43:50;;;;;;;13.43;7.83;;;0.00;92.70;;;0.36;65.42;98979.91;4954683;28;20387;-36
2022/02/12 05:46:18;;;;;;;16.73;8.47;;;0.00;92.90;;;0.36;64.96;98965.03;4953323;28;20051;-36
2022/02/12 05:48:47;;;;;;;14.27;8.37;;;0.00;93.60;;;0.37;65.46;98966.75;4953861;29;20055;-36
2022/02/12 05:51:18;;;;;;;14.00;8.17;;;0.00;93.90;;;0.41;65.51;98961.38;4954682;28;20050;-36
2022/02/12 05:53:46;;;;;;;16.27;8.77;;;0.00;94.70;;;0.39;65.35;98958.84;4952714;29;20070;-36
2022/02/12 05:56:16;;;;;;;15.10;7.27;;;0.00;94.30;;;0.37;65.23;98976.38;4953172;28;20245;-36
2022/02/12 05:58:44;;;;;;;14.63;7.50;;;0.00;95.10;;;0.37;65.59;98955.44;4953800;28;20062;-36
2022/02/12 06:01:12;;;;;;;44.47;13.40;;;0.00;95.30;;;0.38;65.05;98957.13;4953917;28;20051;-36
2022/02/12 06:03:41;;;;;;;31.53;18.63;;;0.00;95.30;;;0.40;64.82;98952.66;4952573;29;20069;-36
2022/02/12 06:06:09;;;;;;;24.10;13.13;;;0.00;95.30;;;0.38;65.21;98952.72;4953569;28;20069;-36
2022/02/12 06:08:37;;;;;;;23.53;10.87;;;0.00;95.70;;;0.35;65.32;98934.53;4953817;28;20059;-36
2022/02/12 06:11:05;;;;;;;19.03;9.30;;;-0.10;95.40;;;0.29;65.33;98947.91;4953848;28;20059;-36
2022/02/12 06:13:33;;;;;;;17.13;9.67;;;-0.20;96.80;;;0.30;65.78;98940.88;4953535;28;20265;-36
2022/02/12 06:16:05;;;;;;;20.47;9.57;;;-0.20;98.50;;;0.32;64.93;98944.28;4953871;28;20047;-36
2022/02/12 06:18:33;;;;;;;16.77;9.30;;;-0.10;98.20;;;0.31;65.55;98953.91;4951153;29;20603;-36
2022/02/12 06:21:06;;;;;;;16.77;9.40;;;-0.10;98.00;;;0.29;64.88;98947.91;4952357;29;20054;-36
2022/02/12 06:23:36;;;;;;;16.00;9.52;;;-0.10;97.70;;;0.29;65.56;98953.13;4949387;29;20063;-36
2022/02/12 06:26:06;;;;;;;22.67;10.93;;;-0.10;97.70;;;0.28;65.64;98958.44;4951307;28;20059;-36
2022/02/12 06:28:35;;;;;;;17.73;9.57;;;-0.10;97.30;;;0.26;64.97;98955.88;4950754;29;20246;-36
2022/02/12 06:31:03;;;;;;;18.17;9.70;;;-0.10;98.10;;;0.24;65.47;98951.63;4951225;29;20237;-36
2022/02/12 06:33:32;;;;;;;17.37;8.17;;;-0.20;97.50;;;0.19;65.45;98955.28;4932935;29;20058;-36
2022/02/12 06:36:00;;;;;;;14.47;9.07;;;-0.30;97.40;;;0.19;65.37;98957.03;4951127;29;20049;-37
2022/02/12 06:38:29;;;;;;;14.67;7.73;;;-0.30;97.70;;;0.17;65.05;98962.34;4951494;29;20059;-37
2022/02/12 06:40:58;;;;;;;15.00;8.90;;;-0.30;97.50;;;0.12;64.71;98953.84;4951023;29;20249;-37
2022/02/12 06:43:26;;;;;;;12.90;7.30;;;-0.40;96.50;;;0.08;65.43;98960.13;4951605;28;20265;-38
2022/02/12 06:45:54;;;;;;;12.73;6.30;;;-0.50;97.20;;;0.07;65.47;98958.41;4949824;28;20055;-37
2022/02/12 06:48:22;;;;;;;11.13;6.57;;;-0.50;97.80;;;0.04;64.86;98955.06;4951588;29;20275;-37
2022/02/12 06:50:50;;;;;;;13.37;6.70;;;-0.50;98.50;;;0.08;65.59;98957.50;4949427;29;20245;-37
2022/02/12 06:53:18;;;;;;;9.70;5.83;;;-0.40;98.50;;;0.06;65.02;98951.47;4949660;29;20057;-37
2022/02/12 06:55:47;;;;;;;12.43;8.27;;;-0.40;98.50;;;0.07;65.66;98957.56;4950259;29;20055;-37
2022/02/12 06:58:17;;;;;;;12.47;6.73;;;-0.40;98.10;;;0.03;64.92;98942.91;4950135;28;20062;-38
2022/02/12 07:00:46;;;;;;;12.67;6.93;;;-0.40;98.00;;;0.03;65.47;98955.97;4950263;29;20047;-37
2022/02/12 07:03:14;;;;;;;11.77;6.80;;;-0.40;98.50;;;0.02;65.19;98949.91;4950474;28;20264;-37
2022/02/12 07:05:42;;;;;;;14.30;6.70;;;-0.50;97.80;;;0.06;65.17;98954.09;4950722;29;20059;-36
2022/02/12 07:08:10;;;;;;;10.53;7.50;;;-0.40;97.80;;;0.04;65.29;98949.81;4950531;29;20057;-38
2022/02/12 07:10:39;;;;;;;12.67;7.63;;;-0.40;97.60;;;0.06;65.37;98959.34;4950306;29;20055;-37
2022/02/12 07:13:08;;;;;;;15.33;8.63;;;-0.40;97.30;;;0.06;65.07;98956.72;4948824;29;20050;-37
2022/02/12 07:15:36;;;;;;;11.00;7.13;;;-0.40;97.80;;;0.06;65.14;98955.84;4951000;28;20344;-37
2022/02/12 07:18:04;;;;;;;12.33;8.10;;;-0.40;98.00;;;0.10;65.62;98957.44;4950695;29;20280;-37
2022/02/12 07:20:32;;;;;;;13.27;8.60;;;-0.30;97.90;;;0.13;65.14;98959.91;4950029;29;20058;-36
2022/02/12 07:23:01;;;;;;;13.03;7.57;;;-0.30;97.70;;;0.15;65.06;98955.47;4949151;29;20051;-37
2022/02/12 07:25:29;;;;;;;17.77;8.43;;;-0.30;97.90;;;0.17;65.95;98954.47;4950335;29;20081;-36
2022/02/12 07:27:58;;;;;;;17.77;9.43;;;-0.20;97.70;;;0.23;65.93;98957.75;4949734;28;20057;-37
2022/02/12 07:30:26;;;;;;;14.13;8.23;;;-0.20;97.20;;;0.24;65.45;98949.84;4950348;28;20065;-37
2022/02/12 07:32:54;;;;;;;12.63;7.50;;;-0.20;97.40;;;0.25;65.12;98951.53;4947437;29;20059;-37
2022/02/12 07:35:23;;;;;;;32.23;14.20;;;-0.10;96.80;;;0.27;65.70;98948.84;4949876;29;20357;-37
2022/02/12 07:37:51;;;;;;;29.37;14.97;;;-0.10;96.50;;;0.25;65.37;98956.78;4950437;29;20062;-37
2022/02/12 07:40:20;;;;;;;32.03;15.17;;;-0.20;96.60;;;0.25;65.13;98948.06;4949343;29;20055;-38
2022/02/12 07:42:49;;;;;;;24.70;13.87;;;-0.20;97.00;;;0.28;65.21;98942.72;4949825;29;20452;-37
2022/02/12 07:45:18;;;;;;;15.83;8.33;;;-0.10;97.20;;;0.31;66.14;98953.91;4949798;29;20093;-37
2022/02/12 07:47:47;;;;;;;31.43;16.67;;;-0.10;97.60;;;0.36;65.16;98953.72;4949976;29;20063;-37
2022/02/12 07:50:17;;;;;;;37.77;17.97;;;0.00;97.10;;;0.34;65.84;98953.78;4949357;28;20051;-37
2022/02/12 07:52:45;;;;;;;32.60;15.87;;;0.00;97.40;;;0.37;65.16;98952.81;4948626;28;20356;-37
2022/02/12 07:55:14;;;;;;;32.27;15.77;;;0.00;97.60;;;0.37;65.89;98955.44;4948701;29;20042;-37
2022/02/12 07:57:43;;;;;;;20.30;10.97;;;0.00;97.70;;;0.39;65.52;98956.22;4948843;28;20252;-37
2022/02/12 08:00:16;;;;;;;17.43;8.73;;;0.00;98.30;;;0.40;65.58;98960.53;4948867;28;20349;-37
2022/02/12 08:02:45;;;;;;;18.00;9.20;;;-0.10;98.80;;;0.44;66.36;98956.00;4949034;28;20066;-37
2022/02/12 08:05:13;;;;;;;18.43;9.87;;;0.00;99.60;;;0.47;65.45;98953.28;4947877;28;20120;-37
2022/02/12 08:07:42;;;;;;;30.20;15.10;;;0.10;99.90;;;0.52;66.10;98946.88;4958476;28;20047;-38
2022/02/12 08:13:02;;;;;;;26.40;11.87;;;0.20;99.20;;;0.62;66.57;98949.97;4960241;28;20040;-37
2022/02/12 08:15:36;;;;;;;;;;;0.40;99.10;;;0.62;66.02;98942.13;4945168;28;20043;-37
2022/02/12 08:18:04;;;;;;;36.17;15.90;;;0.40;98.20;;;0.70;66.19;98939.13;4957256;28;19926;-37
2022/02/12 08:20:33;;;;;;;24.87;11.83;;;0.50;97.50;;;0.75;66.26;98934.56;4958620;28;20051;-37
2022/02/12 08:23:01;;;;;;;29.87;16.10;;;0.50;97.10;;;0.78;65.75;98937.88;4959563;28;20059;-38
2022/02/12 08:25:29;;;;;;;21.37;11.10;;;0.60;96.30;;;0.83;65.90;98947.31;4959512;28;20046;-37
2022/02/12 08:27:57;;;;;;;26.40;13.10;;;0.60;95.70;;;0.86;65.77;98952.44;4960955;28;20039;-37
2022/02/12 08:30:26;;;;;;;15.70;8.33;;;0.60;95.20;;;0.89;66.05;98947.91;4960908;28;20349;-37
2022/02/12 08:32:54;;;;;;;14.77;7.03;;;0.70;94.80;;;0.92;66.34;98950.38;4959763;28;20357;-37
2022/02/12 08:36:08;;;;;;;12.53;7.67;;;0.70;94.60;;;0.95;65.91;98945.00;4960318;29;20058;-37
2022/02/12 08:38:35;;;;;;;13.27;6.93;;;0.70;94.40;;;0.97;66.34;98955.44;4957424;28;20067;-37
2022/02/12 08:41:03;;;;;;;11.80;6.40;;;0.80;93.80;;;1.02;65.52;98947.34;4959952;28;20230;-37
2022/02/12 08:43:31;;;;;;;10.33;6.77;;;0.80;93.60;;;1.06;66.27;98943.66;4959529;28;20059;-37
2022/02/12 08:45:59;;;;;;;10.13;5.97;;;0.90;93.30;;;1.04;65.93;98932.41;4958759;28;20051;-37
2022/02/12 08:48:30;;;;;;;14.20;7.50;;;0.90;92.50;;;1.10;66.24;98938.19;4959053;28;20228;-37
2022/02/12 08:50:58;;;;;;;13.27;6.70;;;0.90;92.60;;;1.16;65.75;98932.69;4957755;28;20055;-37
2022/02/12 08:53:26;;;;;;;9.50;6.50;;;1.00;92.80;;;1.23;66.21;98927.16;4957680;28;20059;-37
2022/02/12 08:55:54;;;;;;;11.03;5.27;;;1.00;92.60;;;1.26;65.85;98925.25;4957362;28;20047;-34
2022/02/12 08:58:22;;;;;;;15.30;7.30;;;1.00;92.20;;;1.28;65.69;98926.03;4954914;28;20953;-37
2022/02/12 09:00:50;;;;;;;17.53;8.37;;;1.10;92.50;;;1.30;65.58;98931.19;4954229;28;20257;-36
2022/02/12 09:03:18;;;;;;;14.00;7.57;;;1.10;92.20;;;1.34;66.04;98915.22;4959764;29;20055;-37
2022/02/12 09:05:46;;;;;;;16.23;7.57;;;1.20;91.90;;;1.39;66.12;98920.25;4957885;29;20063;-37
2022/02/12 09:08:14;;;;;;;14.30;6.73;;;1.20;91.70;;;1.41;65.62;98915.78;4956959;28;20202;-37
2022/02/12 09:10:43;;;;;;;10.00;5.83;;;1.20;91.80;;;1.47;65.63;98922.50;4957473;28;20218;-37
2022/02/12 09:13:11;;;;;;;13.80;6.67;;;1.20;91.80;;;1.51;66.02;98905.69;4959199;28;20055;-37
2022/02/12 09:15:39;;;;;;;13.97;7.33;;;1.30;92.00;;;1.52;66.19;98920.53;4957463;28;20130;-37
2022/02/12 09:18:09;;;;;;;16.73;7.00;;;1.40;91.30;;;1.54;65.74;98921.31;4958965;29;20044;-38
2022/02/12 09:20:38;;;;;;;14.17;7.37;;;1.40;91.10;;;1.60;66.12;98921.00;4957932;28;20043;-36
2022/02/12 09:23:16;;;;;;;12.67;7.03;;;1.40;91.30;;;1.63;66.08;98915.63;4944021;28;20062;-37
2022/02/12 09:25:45;;;;;;;13.97;7.13;;;1.50;91.20;;;1.70;66.01;98910.91;4958847;28;20287;-36
2022/02/12 09:28:18;;;;;;;13.37;6.97;;;1.50;91.10;;;1.76;66.38;98913.22;4956785;28;20308;-36
2022/02/12 09:30:47;;;;;;;12.83;6.77;;;1.60;91.30;;;1.79;66.06;98912.25;4957248;28;20053;-36
2022/02/12 09:33:22;;;;;;;13.17;7.23;;;1.60;91.40;;;1.84;66.13;98915.50;4954519;28;20064;-37
2022/02/12 09:35:57;;;;;;;16.53;7.77;;;1.60;91.60;;;1.83;66.15;98905.94;4959051;28;20047;-36
2022/02/12 09:38:28;;;;;;;14.10;7.97;;;1.60;92.00;;;1.86;65.99;98914.50;4957688;28;20063;-37
2022/02/12 09:40:58;;;;;;;10.80;7.17;;;1.60;92.10;;;1.86;66.16;98914.50;4959137;29;20055;-37
2022/02/12 09:43:29;;;;;;;12.73;7.87;;;1.60;92.40;;;1.90;66.18;98912.56;4959843;28;21024;-37
2022/02/12 09:46:03;;;;;;;12.90;7.50;;;1.60;92.80;;;1.92;65.81;98910.69;4974129;28;20070;-36
2022/02/12 09:48:32;;;;;;;;;;;1.60;93.20;;;1.88;66.03;98898.66;4958253;29;20055;-36
2022/02/12 09:51:03;;;;;;;16.63;6.70;;;1.60;93.60;;;1.92;66.20;98895.81;4960243;28;19927;-36
2022/02/12 09:53:32;;;;;;;12.67;7.70;;;1.60;94.30;;;1.95;65.87;98898.28;4963140;28;20066;-36
2022/02/12 09:56:01;;;;;;;15.80;8.10;;;1.70;94.80;;;2.01;66.39;98904.16;4962308;28;20299;-36
2022/02/12 09:58:30;;;;;;;14.77;7.77;;;1.70;94.90;;;2.05;66.24;98900.44;4962794;29;20051;-36
2022/02/12 10:00:58;;;;;;;17.60;8.07;;;1.80;95.10;;;2.08;66.50;98897.69;4963060;28;20063;-36
2022/02/12 10:03:26;;;;;;;14.67;8.27;;;1.80;95.10;;;2.12;66.53;98889.53;4962839;29;20070;-36
2022/02/12 10:05:55;;;;;;;14.27;9.30;;;1.80;95.30;;;2.15;66.06;98888.53;4962874;29;20047;-36
2022/02/12 10:08:23;;;;;;;16.17;8.93;;;1.90;95.10;;;2.17;66.29;98892.81;4960194;28;20051;-36
2022/02/12 10:10:52;;;;;;;17.67;8.43;;;1.90;95.10;;;2.23;66.11;98882.88;4963018;29;20073;-37
2022/02/12 10:13:23;;;;;;;13.80;8.93;;;2.00;95.30;;;2.26;66.10;98885.38;4961958;28;20244;-37
2022/02/12 10:16:03;;;;;;;15.07;8.23;;;2.00;95.30;;;2.29;66.20;98874.72;4962187;28;20051;-37
2022/02/12 10:18:38;;;;;;;16.20;8.30;;;2.00;95.50;;;2.33;66.40;98884.13;4960944;29;20055;-37
2022/02/12 10:21:13;;;;;;;15.00;8.93;;;2.10;95.60;;;2.39;66.21;98878.56;4944080;29;20051;-37
2022/02/12 10:23:47;;;;;;;16.92;8.45;;;2.10;95.50;;;2.42;66.12;98881.00;4944127;29;20059;-37
2022/02/12 10:26:16;;;;;;;16.33;8.20;;;2.20;95.50;;;2.45;66.21;98875.59;4960881;29;20047;-37
2022/02/12 10:28:48;;;;;;;16.33;8.20;;;2.20;95.50;;;2.50;66.28;98870.09;4962859;29;20249;-37
2022/02/12 10:31:16;;;;;;;12.97;7.27;;;2.30;95.70;;;2.56;66.40;98857.50;4962407;29;20055;-36
2022/02/12 10:33:52;;;;;;;13.97;6.87;;;2.40;95.70;;;2.60;66.66;98852.94;4961863;28;20055;-37
2022/02/12 10:36:24;;;;;;;15.60;8.20;;;2.50;95.60;;;2.66;66.69;98854.38;4962276;28;20047;-37
2022/02/12 10:38:54;;;;;;;13.63;8.37;;;2.50;95.20;;;2.71;66.57;98847.91;4962569;28;20043;-37
2022/02/12 10:41:26;;;;;;;16.33;7.17;;;2.50;95.10;;;2.75;66.58;98846.84;4959657;29;20221;-37